Elizabethtown, Pennsylvania
Current Conditions -  °F | °C
As of 12:56 PM on Thursday 30 Oct 2014 (Local Time) from KMDT Reporting Station
Broken Clouds Broken Clouds  
Wind Chill: 56°   Ceiling: 4000
Heat Index: 56°   Visibility: 10mi
Dew Point: 40°   Wind: 13mph
Humidity: 55%   Direction: 290°WNW
Pressure: 30.03"   Gusts: NA
Location:  40.15°N, 76.61°W
Report Text: KMDT 301656Z 29011KT 10SM BKN040 13/04 A3003 RMK AO2 SLP171 T01330044
Loading
Personal Weather Stations






























Interactive Weather Map
Tropical Storm Tracking
New forecast layout! Learn more

10-Day Weather Forecast

Advertisements
Track Severe Weather on mobile